Time;durP1;ratioP1;P1;durP2;ratioP2;P2;SDS_P1;SDS_P2;PMS_P1;PMS_P2;Temp;Humidity;BMP_temperature;BMP_pressure;BME280_temperature;BME280_humidity;BME280_pressure;Samples;Min_cycle;Max_cycle;Signal;HPM_P1;HPM_P2
2021/04/16 00:01:07;;;;;;;8.63;7.93;;;;;;;10.00;71.37;99773.52;1821506;76;21396;-87
2021/04/16 00:03:36;;;;;;;9.37;8.57;;;;;;;9.92;71.50;99774.48;1802931;77;21322;-88
2021/04/16 00:06:05;;;;;;;10.03;9.10;;;;;;;9.85;71.76;99783.45;1765565;79;21850;-88
2021/04/16 00:08:34;;;;;;;9.27;8.47;;;;;;;9.84;71.74;99781.31;1776830;78;21199;-88
2021/04/16 00:11:16;;;;;;;9.77;8.90;;;;;;;9.91;71.59;99776.03;1768204;79;21205;-90
2021/04/16 00:13:46;;;;;;;10.57;9.73;;;;;;;9.94;71.61;99783.11;1812335;78;21269;-89
2021/04/16 00:16:17;;;;;;;9.37;8.63;;;;;;;9.92;71.66;99779.80;1801071;78;21312;-89
2021/04/16 00:18:50;;;;;;;10.23;9.23;;;;;;;9.90;71.74;99777.03;1812090;77;21215;-89
2021/04/16 00:21:19;;;;;;;10.00;9.17;;;;;;;9.86;71.82;99777.12;1815921;77;21681;-90
2021/04/16 00:23:48;;;;;;;8.87;8.17;;;;;;;9.88;71.72;99778.56;1790111;78;21206;-89
2021/04/16 00:26:15;;;;;;;9.73;8.87;;;;;;;9.97;71.45;99779.74;1793252;78;21195;-88
2021/04/16 00:28:43;;;;;;;8.10;7.43;;;;;;;9.97;71.33;99783.73;1779790;79;21344;-87
2021/04/16 00:31:23;;;;;;;10.30;9.30;;;;;;;9.93;71.44;99785.45;1782022;79;21187;-87
2021/04/16 00:33:52;;;;;;;8.73;8.03;;;;;;;9.92;71.41;99781.13;1767478;78;21262;-84
2021/04/16 00:36:21;;;;;;;10.07;9.23;;;;;;;9.90;71.40;99777.03;1727677;81;21704;-87
2021/04/16 00:38:51;;;;;;;8.83;8.17;;;;;;;9.86;71.31;99775.27;1730425;81;21629;-87
2021/04/16 00:41:24;;;;;;;10.47;8.47;;;;;;;9.91;71.15;99780.02;1731835;81;21664;-87
2021/04/16 00:43:52;;;;;;;9.60;8.80;;;;;;;9.99;70.97;99773.19;1725692;81;21320;-86
2021/04/16 00:46:35;;;;;;;10.13;9.33;;;;;;;10.02;70.92;99773.29;1728068;81;21159;-86
2021/04/16 00:49:08;;;;;;;10.10;9.17;;;;;;;9.98;70.99;99774.71;1722883;81;21711;-87
2021/04/16 00:51:51;;;;;;;14.50;9.17;;;;;;;9.92;71.17;99785.13;1716302;81;21196;-87
2021/04/16 00:54:29;;;;;;;8.60;7.90;;;;;;;9.88;71.35;99783.88;1737550;81;21231;-86
2021/04/16 00:56:59;;;;;;;8.33;7.70;;;;;;;9.91;71.31;99783.50;1694496;83;21154;-87
2021/04/16 00:59:32;;;;;;;8.50;7.80;;;;;;;10.00;71.02;99777.51;1679223;84;21356;-88
2021/04/16 01:02:02;;;;;;;8.70;7.97;;;;;;;9.99;71.18;99780.36;1704138;82;21123;-86
2021/04/16 01:04:31;;;;;;;9.17;8.47;;;;;;;9.95;71.49;99783.93;1737174;81;21220;-87
2021/04/16 01:07:02;;;;;;;9.00;8.30;;;;;;;9.94;71.62;99788.44;1718517;81;21363;-87
2021/04/16 01:09:32;;;;;;;8.37;7.67;;;;;;;9.90;72.01;99787.16;1723208;81;21293;-87
2021/04/16 01:12:07;;;;;;;8.90;8.20;;;;;;;9.94;72.15;99779.61;1721198;80;21116;-87
2021/04/16 01:14:38;;;;;;;8.73;8.03;;;;;;;10.02;71.85;99781.28;1691768;83;21865;-88
2021/04/16 01:17:09;;;;;;;10.10;9.20;;;;;;;10.02;71.95;99779.95;1716472;82;21201;-88
2021/04/16 01:19:49;;;;;;;8.80;8.00;;;;;;;9.95;71.92;99786.59;1689682;83;21198;-87
2021/04/16 01:22:39;;;;;;;9.73;8.93;;;;;;;9.89;72.10;99788.72;1715599;80;21341;-88
2021/04/16 01:25:20;;;;;;;8.90;8.07;;;;;;;9.84;71.97;99781.31;1854627;75;22915;-86
2021/04/16 01:27:48;;;;;;;8.80;8.10;;;;;;;9.84;71.97;99781.31;1803949;78;21603;-86
2021/04/16 01:30:21;;;;;;;9.17;8.47;;;;;;;9.92;71.73;99775.81;1805295;78;21372;-87
2021/04/16 01:32:52;;;;;;;8.87;8.17;;;;;;;9.92;71.71;99781.65;1805172;78;21155;-87
2021/04/16 01:35:24;;;;;;;11.43;10.20;;;;;;;9.84;71.99;99780.49;1784758;78;21040;-87
2021/04/16 01:37:52;;;;;;;11.63;10.63;;;;;;;9.78;72.14;99778.11;1803872;78;21141;-86
2021/04/16 01:40:24;;;;;;;10.50;9.60;;;;;;;9.75;72.47;99778.49;1776854;78;21728;-87
2021/04/16 01:42:53;;;;;;;11.50;9.50;;;;;;;9.77;72.22;99777.78;1793462;78;21160;-86
2021/04/16 01:45:28;;;;;;;10.90;9.60;;;;;;;9.86;71.99;99780.59;1787115;78;21086;-86
2021/04/16 01:47:59;;;;;;;11.43;10.43;;;;;;;9.90;71.85;99777.03;1784191;78;21165;-86
2021/04/16 01:50:29;;;;;;;16.17;14.17;;;;;;;9.86;71.89;99776.61;1785643;78;21296;-87
2021/04/16 01:53:00;;;;;;;19.87;17.80;;;;;;;9.83;71.91;99776.17;1763268;78;21311;-86
2021/04/16 01:55:28;;;;;;;26.93;21.50;;;;;;;9.80;72.07;99776.59;1783595;78;21473;-86
2021/04/16 01:57:56;;;;;;;28.90;20.67;;;;;;;9.85;71.84;99777.64;1766926;78;21170;-87
2021/04/16 02:00:33;;;;;;;31.27;20.17;;;;;;;9.96;71.44;99768.25;1784858;78;21112;-87
2021/04/16 02:03:03;;;;;;;;;;;;;;;9.98;71.45;99770.20;1750142;82;21219;-88
2021/04/16 02:05:32;;;;;;;28.70;22.47;;;;;;;9.92;71.55;99770.48;1724571;82;20478;-87
2021/04/16 02:08:00;;;;;;;24.80;20.80;;;;;;;9.82;71.90;99772.70;1749336;81;21790;-88
2021/04/16 02:10:28;;;;;;;29.07;22.47;;;;;;;9.80;71.95;99769.94;1752990;82;21622;-87
2021/04/16 02:12:57;;;;;;;29.40;20.00;;;;;;;9.73;71.84;99772.03;1713354;82;21126;-86
2021/04/16 02:15:25;;;;;;;19.13;14.10;;;;;;;9.76;71.92;99768.17;1687551;84;21191;-86
2021/04/16 02:17:53;;;;;;;16.73;13.33;;;;;;;9.83;71.94;99770.37;1690992;84;21523;-89
2021/04/16 02:20:25;;;;;;;12.43;10.87;;;;;;;9.83;71.69;99773.03;1680825;84;21155;-87
2021/04/16 02:22:53;;;;;;;11.43;10.23;;;;;;;9.78;71.76;99774.64;1703623;83;21095;-89
2021/04/16 02:25:22;;;;;;;12.73;10.97;;;;;;;9.75;71.88;99773.17;1720086;82;21326;-86
2021/04/16 02:27:55;;;;;;;9.27;8.13;;;;;;;9.70;71.85;99779.09;1743493;82;21363;-87
2021/04/16 02:30:33;;;;;;;7.27;6.70;;;;;;;9.66;71.86;99775.19;1739870;82;21509;-87
2021/04/16 02:33:09;;;;;;;6.70;6.13;;;;;;;9.69;71.91;99772.12;1742765;82;21350;-86
2021/04/16 02:35:34;;;;;;;6.60;6.10;;;;;;;9.77;71.77;99779.11;1735789;82;21118;-86
2021/04/16 02:38:02;;;;;;;7.77;7.03;;;;;;;9.20;71.76;99685.80;1739790;82;21635;-87
2021/04/16 02:40:30;;;;;;;6.57;6.07;;;;;;;9.69;71.90;99775.30;1732029;82;21349;-89
2021/04/16 02:42:58;;;;;;;7.97;7.37;;;;;;;9.61;72.10;99782.11;1719052;81;21580;-89
2021/04/16 02:45:27;;;;;;;6.90;6.30;;;;;;;9.55;72.11;99771.75;1736168;81;21117;-89
2021/04/16 02:47:55;;;;;;;6.73;6.23;;;;;;;9.58;72.12;99777.98;1714692;81;21167;-86
2021/04/16 02:50:27;;;;;;;7.17;6.63;;;;;;;9.66;71.80;99775.67;1738459;81;21161;-87
2021/04/16 02:52:56;;;;;;;7.83;7.23;;;;;;;9.64;71.74;99775.86;1742283;81;21306;-89
2021/04/16 02:55:25;;;;;;;7.27;6.67;;;;;;;9.61;71.93;99778.13;1739359;81;21174;-87
2021/04/16 02:57:55;;;;;;;6.70;6.23;;;;;;;9.54;72.15;99777.55;1698316;83;21297;-89
2021/04/16 03:00:28;;;;;;;7.50;6.83;;;;;;;9.49;72.41;99773.83;1714660;82;21346;-88
2021/04/16 03:02:56;;;;;;;6.30;5.77;;;;;;;9.50;72.30;99771.50;1744044;82;21678;-89
2021/04/16 03:05:26;;;;;;;6.70;6.20;;;;;;;9.53;72.24;99775.08;1745762;82;21354;-87
2021/04/16 03:07:54;;;;;;;7.83;7.03;;;;;;;9.51;72.39;99773.97;1745159;82;21625;-86
2021/04/16 03:10:28;;;;;;;6.90;6.33;;;;;;;9.47;72.62;99775.87;1724211;82;21290;-89
2021/04/16 03:12:55;;;;;;;6.87;6.37;;;;;;;9.45;72.60;99776.58;1743447;81;21744;-88
2021/04/16 03:15:23;;;;;;;7.30;6.67;;;;;;;9.42;72.85;99779.13;1732633;82;21191;-87
2021/04/16 03:17:53;;;;;;;6.50;6.00;;;;;;;9.45;72.90;99777.91;1745036;82;21144;-87
2021/04/16 03:20:23;;;;;;;8.10;7.40;;;;;;;9.50;73.04;99772.31;1730035;82;21176;-88
2021/04/16 03:22:51;;;;;;;7.73;7.03;;;;;;;9.48;72.93;99775.68;1725074;82;21136;-88
2021/04/16 03:25:21;;;;;;;7.30;6.73;;;;;;;9.41;73.20;99774.81;1748519;81;21203;-87
2021/04/16 03:27:50;;;;;;;8.23;7.53;;;;;;;9.36;73.55;99774.56;1761705;81;21638;-88
2021/04/16 03:30:22;;;;;;;7.77;7.17;;;;;;;9.29;73.76;99770.54;1760764;81;21916;-87
2021/04/16 03:32:51;;;;;;;7.73;7.17;;;;;;;9.31;73.85;99774.34;1734253;81;21667;-88
2021/04/16 03:35:21;;;;;;;9.23;8.27;;;;;;;9.37;73.33;99777.55;1747618;81;21084;-89
2021/04/16 03:37:51;;;;;;;10.33;9.40;;;;;;;9.37;73.25;99778.06;1743214;82;21207;-86
2021/04/16 03:40:24;;;;;;;10.23;9.23;;;;;;;9.26;73.65;99780.22;1739716;80;21136;-90
2021/04/16 03:42:54;;;;;;;9.17;8.37;;;;;;;9.16;73.76;99786.40;1748444;80;21284;-85
2021/04/16 03:45:23;;;;;;;10.10;9.20;;;;;;;9.12;74.35;99775.84;1722694;81;21351;-85
2021/04/16 03:47:52;;;;;;;12.67;7.97;;;;;;;9.16;74.09;99785.07;1706533;84;21677;-84
2021/04/16 03:50:29;;;;;;;7.93;7.23;;;;;;;9.26;74.11;99790.86;1699940;83;21185;-85
2021/04/16 03:52:57;;;;;;;10.03;9.17;;;;;;;9.27;74.02;99785.88;1703321;83;21348;-85
2021/04/16 03:55:29;;;;;;;10.40;9.50;;;;;;;9.19;74.11;99787.33;1705105;83;21454;-85
2021/04/16 03:57:58;;;;;;;9.50;8.70;;;;;;;9.16;74.13;99785.88;1714325;83;21160;-86
2021/04/16 04:00:31;;;;;;;9.17;8.37;;;;;;;9.18;74.00;99787.54;1698288;82;21056;-85
2021/04/16 04:03:00;;;;;;;7.50;6.87;;;;;;;9.22;74.00;99789.61;1684923;84;21227;-85
2021/04/16 04:05:30;;;;;;;7.90;7.27;;;;;;;9.32;73.54;99791.92;1706635;83;21193;-86
2021/04/16 04:07:58;;;;;;;7.83;7.13;;;;;;;9.28;73.39;99792.00;1698381;84;21195;-86
2021/04/16 04:10:28;;;;;;;7.00;6.40;;;;;;;9.19;73.84;99789.17;1746500;82;21148;-86
2021/04/16 04:12:55;;;;;;;7.00;6.50;;;;;;;9.14;74.18;99791.09;1751551;81;21735;-85
2021/04/16 04:15:22;;;;;;;7.63;6.93;;;;;;;9.10;74.17;99793.82;1747574;82;21366;-85
2021/04/16 04:17:51;;;;;;;7.23;6.70;;;;;;;9.15;73.87;99791.39;1708343;83;21141;-85
2021/04/16 04:20:24;;;;;;;8.03;7.37;;;;;;;9.23;73.70;99794.41;1674950;84;21200;-86
2021/04/16 04:22:51;;;;;;;6.30;5.80;;;;;;;9.26;73.51;99792.70;1697030;83;21670;-85
2021/04/16 04:25:24;;;;;;;8.10;7.40;;;;;;;9.22;73.74;99796.77;1714676;83;21148;-87
2021/04/16 04:27:53;;;;;;;7.77;7.17;;;;;;;9.16;73.58;99795.19;1705093;83;21234;-90
2021/04/16 04:30:25;;;;;;;6.40;5.90;;;;;;;9.14;73.79;99797.22;1739538;81;21645;-88
2021/04/16 04:32:54;;;;;;;5.77;5.37;;;;;;;9.19;73.56;99795.81;1739092;81;21643;-87
2021/04/16 04:35:24;;;;;;;6.77;6.27;;;;;;;9.26;73.51;99796.18;1727330;79;21072;-86
2021/04/16 04:37:53;;;;;;;6.63;6.10;;;;;;;9.27;73.38;99799.17;1709425;82;21176;-91
2021/04/16 04:40:24;;;;;;;9.07;6.63;;;;;;;9.24;73.61;99797.40;1728687;82;21177;-87
2021/04/16 04:42:52;;;;;;;7.60;7.00;;;;;;;9.22;73.71;99800.76;1701278;82;21697;-88
2021/04/16 04:45:20;;;;;;;6.47;5.87;;;;;;;9.21;73.72;99793.78;1723534;80;21100;-89
2021/04/16 04:47:48;;;;;;;6.93;6.40;;;;;;;9.26;73.81;99799.36;1718133;82;21159;-87
2021/04/16 05:01:18;;;;;;;6.83;6.23;;;;;;;8.81;76.42;99799.58;1658449;80;22433;-87
2021/04/16 05:03:50;;;;;;;6.43;5.93;;;;;;;8.65;76.80;99797.19;1622388;86;21438;-87
2021/04/16 05:06:43;;;;;;;6.67;6.17;;;;;;;8.75;76.54;99793.19;1798127;78;23208;-87
2021/04/16 05:09:11;;;;;;;6.63;6.13;;;;;;;8.80;76.52;99794.45;1789342;78;21131;-87
2021/04/16 05:11:38;;;;;;;7.43;6.73;;;;;;;8.84;76.38;99801.05;1768333;78;21714;-85
2021/04/16 05:16:46;;;;;;;7.90;6.97;;;;;;;8.83;76.63;99790.91;1806568;77;23294;-87
2021/04/16 05:19:15;;;;;;;6.87;6.17;;;;;;;8.76;76.73;99795.36;1808021;78;21167;-86
2021/04/16 05:21:45;;;;;;;6.67;6.13;;;;;;;8.80;76.69;99797.95;1789230;78;21188;-86
2021/04/16 05:24:13;;;;;;;7.40;6.80;;;;;;;8.89;76.31;99790.16;1749401;80;21095;-84
2021/04/16 05:26:41;;;;;;;8.23;7.43;;;;;;;8.91;76.31;99793.94;1735750;81;21657;-86
2021/04/16 05:29:10;;;;;;;7.20;6.70;;;;;;;8.86;76.40;99795.84;1720035;81;21669;-85
2021/04/16 05:31:37;;;;;;;8.53;7.83;;;;;;;8.84;76.60;99795.22;1736687;81;21213;-86
2021/04/16 05:34:05;;;;;;;7.43;6.83;;;;;;;8.82;76.52;99791.12;1723964;81;21100;-85
2021/04/16 05:36:33;;;;;;;6.20;5.60;;;;;;;8.89;76.51;99798.62;1713577;81;21203;-86
2021/04/16 05:39:02;;;;;;;5.30;4.90;;;;;;;8.95;75.85;99791.23;1718698;82;21345;-85
2021/04/16 05:41:29;;;;;;;5.80;5.27;;;;;;;8.97;75.59;99797.19;1720438;81;21211;-85
2021/04/16 05:43:56;;;;;;;6.20;5.60;;;;;;;8.92;75.70;99795.08;1720782;81;21161;-85
2021/04/16 05:46:24;;;;;;;5.97;5.33;;;;;;;8.90;75.86;99793.64;1671011;84;21100;-85
2021/04/16 05:48:52;;;;;;;6.83;4.87;;;;;;;8.92;75.87;99791.61;1693837;83;21308;-86
2021/04/16 05:51:19;;;;;;;4.60;4.20;;;;;;;9.03;75.43;99792.42;1676002;84;21643;-84
2021/04/16 05:53:47;;;;;;;5.87;5.47;;;;;;;9.08;75.38;99791.83;1688378;83;21199;-84
2021/04/16 05:56:15;;;;;;;7.20;6.27;;;;;;;9.04;75.51;99795.89;1690290;82;21532;-85
2021/04/16 05:58:44;;;;;;;6.80;6.20;;;;;;;8.96;75.66;99799.52;1701099;82;21195;-85
2021/04/16 06:01:12;;;;;;;5.90;5.40;;;;;;;8.98;75.87;99800.66;1687354;82;21247;-84
2021/04/16 06:03:43;;;;;;;15.63;14.13;;;;;;;9.08;75.87;99800.66;1716037;82;21167;-85
2021/04/16 06:06:10;;;;;;;8.97;8.17;;;;;;;9.11;75.70;99797.59;1708677;82;21212;-85
2021/04/16 06:08:37;;;;;;;9.50;8.70;;;;;;;8.95;76.04;99784.08;1709845;82;21358;-85
2021/04/16 06:11:06;;;;;;;9.33;8.53;;;;;;;9.03;76.15;99807.56;1686233;83;21181;-85
2021/04/16 06:13:37;;;;;;;9.63;8.70;;;;;;;8.99;76.17;99799.66;1708838;82;21608;-85
2021/04/16 06:16:08;;;;;;;7.80;7.20;;;;;;;9.01;76.08;99801.61;1709080;82;22303;-85
2021/04/16 06:18:37;;;;;;;9.97;9.07;;;;;;;9.10;75.78;99804.45;1708836;82;21500;-84
2021/04/16 06:21:05;;;;;;;8.87;8.07;;;;;;;9.13;75.78;99808.86;1697242;82;21217;-84
2021/04/16 06:23:33;;;;;;;9.67;8.83;;;;;;;9.10;75.84;99810.59;1690319;82;21097;-87
2021/04/16 06:26:06;;;;;;;9.43;8.53;;;;;;;9.05;75.93;99809.00;1682722;84;21302;-85
2021/04/16 06:28:34;;;;;;;9.57;8.77;;;;;;;9.07;76.13;99807.48;1678853;84;21186;-86
2021/04/16 06:31:03;;;;;;;11.90;10.90;;;;;;;9.14;76.13;99813.17;1679477;84;21643;-84
2021/04/16 06:33:34;;;;;;;19.37;11.20;;;;;;;9.13;76.16;99811.52;1677797;84;21091;-83
2021/04/16 06:36:07;;;;;;;14.00;12.53;;;;;;;9.09;76.33;99813.44;1670283;84;21202;-84
2021/04/16 06:38:39;;;;;;;10.17;9.27;;;;;;;9.07;76.44;99814.95;1677407;84;21325;-85
2021/04/16 06:41:27;;;;;;;12.27;11.07;;;;;;;9.13;76.37;99819.49;1665105;84;21178;-91
2021/04/16 06:44:04;;;;;;;9.27;8.37;;;;;;;9.24;76.04;99820.00;1669517;84;21184;-92
2021/04/16 06:46:43;;;;;;;9.57;8.63;;;;;;;9.23;76.00;99821.84;1675916;84;21188;-92
2021/04/16 06:49:22;;;;;;;9.37;7.73;;;;;;;9.19;76.00;99819.75;1667499;84;21331;-91
2021/04/16 06:52:09;;;;;;;10.17;9.27;;;;;;;9.12;75.65;99822.37;1661294;84;21303;-92
2021/04/16 06:55:12;;;;;;;8.45;7.65;;;;;;;9.12;75.24;99824.51;1699356;84;21183;-90
2021/04/16 06:58:14;;;;;;;8.65;7.90;;;;;;;9.19;75.41;99823.22;1671538;84;21164;-90
2021/04/16 07:01:13;;;;;;;9.43;8.08;;;;;;;9.14;76.40;99825.66;1683609;84;21248;-96
2021/04/16 07:05:00;;;;;;;8.07;7.37;;;;;;;9.00;75.92;99834.00;1672536;80;21137;-95
2021/04/16 07:08:02;;;;;;;;;;;;;;;;;;;;;
2021/04/16 07:10:44;;;;;;;8.17;7.40;;;;;;;8.94;76.37;99825.46;1800830;76;23501;-94
2021/04/16 07:13:24;;;;;;;8.33;7.53;;;;;;;8.89;76.28;99834.02;1682015;80;21049;-89
2021/04/16 07:16:21;;;;;;;10.15;9.15;;;;;;;8.83;76.36;99843.24;1678785;81;21123;-95
2021/04/16 07:19:17;;;;;;;8.47;7.77;;;;;;;8.81;76.91;99840.77;1677203;84;21128;-90
2021/04/16 07:22:01;;;;;;;;;;;;;;;;;;;;;
2021/04/16 07:24:48;;;;;;;9.38;8.68;;;;;;;9.13;76.88;99835.45;1756606;79;28176;-95
2021/04/16 07:27:32;;;;;;;11.40;9.07;;;;;;;9.34;76.45;99839.94;1738827;81;21189;-95
2021/04/16 07:30:37;;;;;;;9.60;8.70;;;;;;;9.49;76.08;99838.53;1737034;80;21124;-89
2021/04/16 07:33:29;;;;;;;8.70;7.17;;;;;;;9.45;76.09;99839.91;1709410;78;21166;-89
2021/04/16 07:36:21;;;;;;;8.13;7.33;;;;;;;9.50;75.41;99839.34;1725730;81;21156;-90
2021/04/16 07:39:17;;;;;;;9.17;8.27;;;;;;;9.52;74.55;99841.30;1708493;81;21179;-91
2021/04/16 07:41:49;;;;;;;10.07;9.17;;;;;;;9.38;75.32;99847.52;1731577;81;21530;-91
2021/04/16 07:44:34;;;;;;;8.70;7.83;;;;;;;9.27;75.95;99847.55;1732457;81;21181;-94
2021/04/16 07:47:17;;;;;;;8.23;7.50;;;;;;;9.18;76.11;99840.72;1738646;81;21298;-93
2021/04/16 07:50:10;;;;;;;7.20;6.50;;;;;;;9.21;75.94;99846.48;1705227;82;21164;-94
2021/04/16 07:52:46;;;;;;;9.10;8.40;;;;;;;9.35;75.97;99851.39;1722223;81;21096;-87
2021/04/16 07:55:33;;;;;;;9.90;7.63;;;;;;;9.39;75.79;99851.84;1706150;82;21180;-88
2021/04/16 07:58:19;;;;;;;10.87;9.37;;;;;;;9.39;75.91;99846.00;1704858;84;21147;-86
2021/04/16 08:00:49;;;;;;;9.53;8.20;;;;;;;9.41;75.82;99855.13;1714613;82;21621;-87
2021/04/16 08:03:23;;;;;;;8.80;7.90;;;;;;;9.50;75.65;99856.12;1693036;83;21188;-87
2021/04/16 08:05:59;;;;;;;9.37;8.57;;;;;;;9.65;75.35;99853.36;1716262;82;21119;-86
2021/04/16 08:08:30;;;;;;;12.00;8.77;;;;;;;9.72;75.15;99864.06;1709127;83;21164;-88
2021/04/16 08:11:10;;;;;;;10.40;9.20;;;;;;;9.70;75.13;99859.42;1712753;82;21338;-89
2021/04/16 08:13:48;;;;;;;10.47;9.57;;;;;;;9.67;75.28;99858.50;1717884;82;21308;-87
2021/04/16 08:16:25;;;;;;;;;;;;;;;9.65;75.50;99859.20;1711931;82;21233;-85
2021/04/16 08:19:02;;;;;;;9.98;8.68;;;;;;;9.71;75.56;99854.42;1714277;82;20333;-87
2021/04/16 08:21:37;;;;;;;8.07;7.43;;;;;;;9.79;75.65;99850.27;1714137;82;21208;-85
2021/04/16 08:24:29;;;;;;;8.40;7.80;;;;;;;9.54;74.74;99821.45;1714802;82;21168;-87
2021/04/16 08:27:38;;;;;;;10.73;8.03;;;;;;;9.59;74.95;99851.97;1717208;82;21149;-87
2021/04/16 08:30:27;;;;;;;;;;;;;;;;;;;;;
2021/04/16 08:33:15;;;;;;;10.40;9.47;;;;;;;9.36;75.44;99857.02;1716633;81;21136;-85
2021/04/16 08:36:28;;;;;;;9.57;8.77;;;;;;;9.51;75.51;99850.28;1837059;77;23062;-84
2021/04/16 08:39:09;;;;;;;11.03;10.03;;;;;;;9.47;75.81;99849.84;1804444;78;21127;-87
2021/04/16 08:41:52;;;;;;;10.80;9.80;;;;;;;9.42;76.23;99856.75;1788647;78;21155;-88
2021/04/16 08:44:21;;;;;;;10.80;9.80;;;;;;;9.39;76.22;99855.31;1795813;78;21275;-87
2021/04/16 08:46:55;;;;;;;9.53;8.73;;;;;;;9.44;75.81;99855.56;1738820;81;21549;-86
2021/04/16 08:49:32;;;;;;;11.03;10.00;;;;;;;9.54;75.65;99853.89;1732440;81;21294;-86
2021/04/16 08:52:27;;;;;;;13.93;10.72;;;;;;;9.55;75.68;99859.03;1735345;81;21170;-87
2021/04/16 08:55:11;;;;;;;10.90;9.90;;;;;;;9.51;75.84;99860.44;1734340;81;21167;-86
2021/04/16 08:58:01;;;;;;;9.77;8.97;;;;;;;9.44;76.18;99851.58;1736037;81;21160;-89
2021/04/16 09:00:41;;;;;;;;;;;;;;;9.58;75.98;99864.45;1705709;83;21099;-89
2021/04/16 09:03:20;;;;;;;10.53;9.53;;;;;;;9.72;75.78;99867.55;1670213;83;20511;-88
2021/04/16 09:06:00;;;;;;;11.03;9.93;;;;;;;9.71;76.24;99867.22;1694328;83;21162;-89
2021/04/16 09:08:45;;;;;;;13.07;11.80;;;;;;;9.66;76.77;99868.33;1704071;83;21303;-90
2021/04/16 09:11:44;;;;;;;13.07;11.77;;;;;;;9.59;77.21;99868.78;1700774;83;21179;-92
2021/04/16 09:14:34;;;;;;;11.33;10.23;;;;;;;9.64;77.56;99869.00;1677421;84;21184;-90
2021/04/16 09:17:08;;;;;;;12.50;11.17;;;;;;;9.78;77.42;99874.45;1668241;84;21205;-90
2021/04/16 09:19:43;;;;;;;12.53;11.33;;;;;;;9.76;76.74;99873.30;1665970;84;21212;-91
2021/04/16 09:22:18;;;;;;;12.70;11.47;;;;;;;9.67;76.98;99868.62;1668397;82;21208;-91
2021/04/16 09:24:58;;;;;;;12.67;11.53;;;;;;;9.66;77.36;99867.48;1706448;82;21321;-93
2021/04/16 09:27:38;;;;;;;12.10;10.90;;;;;;;9.74;77.83;99874.01;1711687;82;21139;-92
2021/04/16 09:30:34;;;;;;;12.50;11.40;;;;;;;9.91;77.56;99862.03;1788794;77;24063;-88
2021/04/16 09:33:19;;;;;;;12.37;11.17;;;;;;;9.90;77.50;99866.22;1782014;78;21455;-87
2021/04/16 09:35:55;;;;;;;12.57;11.43;;;;;;;9.88;77.87;99871.73;1704218;82;21180;-88
2021/04/16 09:38:50;;;;;;;10.93;9.90;;;;;;;9.88;77.59;99866.92;1705724;82;21172;-87
2021/04/16 09:41:27;;;;;;;12.60;11.23;;;;;;;9.95;77.14;99870.45;1681883;85;21197;-88
2021/04/16 09:44:20;;;;;;;11.08;9.98;;;;;;;10.07;76.98;99872.05;1684620;83;21199;-91
2021/04/16 09:46:49;;;;;;;13.80;10.50;;;;;;;10.07;76.67;99872.86;1678629;83;21224;-90
2021/04/16 09:49:43;;;;;;;11.47;10.50;;;;;;;9.99;76.72;99872.22;1681812;83;21192;-94
2021/04/16 09:52:41;;;;;;;10.57;9.33;;;;;;;9.94;76.90;99870.97;1678817;84;21824;-89
2021/04/16 09:55:57;;;;;;;10.47;9.57;;;;;;;9.99;76.32;99876.22;1684070;83;21164;-91
2021/04/16 09:58:42;;;;;;;11.93;9.73;;;;;;;10.00;75.97;99867.19;1625697;87;21785;-91
2021/04/16 10:01:25;;;;;;;10.67;9.57;;;;;;;9.96;76.11;99873.93;1589792;88;21180;-87
2021/04/16 10:04:06;;;;;;;12.53;11.27;;;;;;;9.85;76.39;99873.47;1628183;85;21356;-87
2021/04/16 10:06:40;;;;;;;10.03;9.23;;;;;;;9.81;76.60;99873.52;1631250;86;21177;-91
2021/04/16 10:09:21;;;;;;;10.83;9.93;;;;;;;9.87;76.72;99871.92;1628864;86;21208;-88
2021/04/16 10:12:01;;;;;;;9.60;8.80;;;;;;;10.00;76.40;99872.52;1647726;82;21233;-92
2021/04/16 10:14:37;;;;;;;10.87;9.83;;;;;;;10.04;76.15;99875.09;1666133;83;21203;-89
2021/04/16 10:17:15;;;;;;;13.70;11.23;;;;;;;9.98;76.12;99869.23;1691232;83;21173;-88
2021/04/16 10:20:05;;;;;;;12.53;11.23;;;;;;;9.95;76.50;99870.45;1672038;83;21706;-88
2021/04/16 10:22:37;;;;;;;12.10;11.00;;;;;;;10.00;76.47;99881.34;1681380;83;21091;-88
2021/04/16 10:41:28;;;;;;;11.10;10.10;;;;;;;10.18;76.62;99879.48;1610710;87;21272;-87
2021/04/16 12:39:51;;;;;;;9.75;8.83;;;;;;;10.85;72.46;99889.94;1660725;83;21195;-89
2021/04/16 12:42:19;;;;;;;10.43;9.60;;;;;;;10.88;72.96;99884.19;1592562;86;21213;-89
2021/04/16 12:44:53;;;;;;;9.90;9.20;;;;;;;10.89;72.83;99884.52;1654716;86;21299;-92
2021/04/16 12:47:25;;;;;;;10.13;9.33;;;;;;;10.90;72.56;99883.99;1645579;84;21643;-91
2021/04/16 12:49:55;;;;;;;9.90;9.10;;;;;;;10.92;72.45;99884.61;1641978;86;21248;-91
2021/04/16 12:52:23;;;;;;;10.50;9.50;;;;;;;10.94;72.43;99879.89;1654555;86;21212;-91
2021/04/16 12:54:52;;;;;;;8.27;7.67;;;;;;;11.00;72.33;99885.77;1646666;84;21282;-92
2021/04/16 12:57:43;;;;;;;8.17;7.57;;;;;;;11.10;71.65;99884.05;1664413;84;21086;-91
2021/04/16 13:00:15;;;;;;;9.50;8.80;;;;;;;11.09;72.09;99874.38;1645200;84;21142;-91
2021/04/16 13:02:43;;;;;;;12.28;9.73;;;;;;;11.00;72.10;99880.44;1636866;85;21201;-91
2021/04/16 13:05:17;;;;;;;7.47;6.87;;;;;;;10.89;72.44;99882.37;1644893;85;21213;-90
2021/04/16 13:07:48;;;;;;;7.93;7.30;;;;;;;10.88;72.65;99880.70;1650994;85;21688;-92
2021/04/16 13:10:25;;;;;;;7.40;6.90;;;;;;;10.93;72.08;99885.45;1633243;86;21254;-92
2021/04/16 13:12:52;;;;;;;8.00;7.40;;;;;;;10.90;72.25;99882.66;1645881;84;21166;-91
2021/04/16 13:15:21;;;;;;;8.63;7.97;;;;;;;10.84;72.45;99884.80;1600721;88;21260;-91
2021/04/16 13:17:56;;;;;;;9.50;8.63;;;;;;;10.78;72.49;99881.62;1631883;86;21642;-92
2021/04/16 13:20:25;;;;;;;8.23;7.47;;;;;;;10.73;72.75;99878.20;1632261;86;21354;-91
2021/04/16 13:22:54;;;;;;;8.17;7.57;;;;;;;10.80;72.83;99883.56;1620273;85;21102;-90
2021/04/16 13:25:27;;;;;;;9.40;8.60;;;;;;;10.86;72.68;99882.76;1610959;87;21360;-90
2021/04/16 13:27:55;;;;;;;11.07;9.67;;;;;;;10.89;72.73;99878.37;1615446;87;21253;-91
2021/04/16 13:30:38;;;;;;;;;;;;;;;;;;;;;
2021/04/16 13:33:44;;;;;;;11.10;10.27;;;;;;;10.71;72.67;99875.73;1805079;77;22734;-91
2021/04/16 13:36:23;;;;;;;9.20;8.50;;;;;;;10.70;72.71;99878.63;1754959;81;21378;-90
2021/04/16 13:38:52;;;;;;;10.63;9.23;;;;;;;10.71;72.55;99878.40;1752900;81;21329;-92
2021/04/16 13:41:21;;;;;;;11.83;10.57;;;;;;;10.64;73.00;99880.25;1754189;81;21202;-93
2021/04/16 13:44:03;;;;;;;;;;;;;;;;;;;;;
2021/04/16 13:46:42;;;;;;;11.50;9.33;;;;;;;10.49;73.67;99878.22;1826681;77;24076;-91
2021/04/16 13:49:15;;;;;;;9.57;8.77;;;;;;;10.52;73.86;99879.16;1797886;78;21297;-92
2021/04/16 13:51:43;;;;;;;10.10;9.00;;;;;;;10.59;73.49;99882.67;1785051;79;21400;-90
2021/04/16 13:54:11;;;;;;;11.30;10.27;;;;;;;10.53;73.13;99887.48;1778745;79;21589;-91
2021/04/16 13:56:41;;;;;;;12.00;10.87;;;;;;;10.37;73.68;99879.82;1746146;79;21084;-90
2021/04/16 13:59:30;;;;;;;11.53;10.53;;;;;;;10.25;74.59;99891.00;1723249;83;21195;-91
2021/04/16 14:01:58;;;;;;;11.23;10.27;;;;;;;10.21;74.75;99886.25;1718077;83;21104;-92
2021/04/16 14:04:30;;;;;;;10.70;9.60;;;;;;;10.19;74.67;99890.47;1688931;84;21373;-91
2021/04/16 14:06:59;;;;;;;10.47;9.50;;;;;;;10.13;74.71;99888.56;1670326;84;21637;-92
2021/04/16 14:09:28;;;;;;;12.23;11.00;;;;;;;10.02;75.33;99889.11;1688327;84;21207;-92
2021/04/16 14:11:57;;;;;;;12.00;10.90;;;;;;;9.91;75.82;99891.31;1658385;83;21124;-91
2021/04/16 14:14:30;;;;;;;9.63;8.83;;;;;;;9.94;75.70;99893.60;1629811;86;21232;-91
2021/04/16 14:17:18;;;;;;;10.53;9.57;;;;;;;9.98;75.82;99882.54;1628917;87;21214;-90
2021/04/16 14:20:41;;;;;;;17.07;15.30;;;;;;;9.91;76.13;99889.98;1625006;86;21223;-93
2021/04/16 14:23:12;;;;;;;13.53;12.23;;;;;;;9.81;76.65;99884.69;1661982;84;21772;-92
2021/04/16 14:25:44;;;;;;;11.87;10.67;;;;;;;9.84;76.80;99890.45;1668360;83;21136;-93
2021/04/16 14:28:16;;;;;;;12.07;10.97;;;;;;;9.96;76.91;99892.05;1681719;83;21187;-92
2021/04/16 14:30:45;;;;;;;14.03;12.63;;;;;;;10.01;76.71;99885.64;1665544;84;21195;-94
2021/04/16 14:33:19;;;;;;;15.63;14.23;;;;;;;9.99;76.83;99890.34;1639407;84;21266;-93
2021/04/16 14:35:47;;;;;;;12.07;11.03;;;;;;;10.00;76.90;99890.67;1647395;81;21522;-93
2021/04/16 14:38:18;;;;;;;13.90;12.60;;;;;;;10.08;76.66;99894.49;1757578;81;21203;-93
2021/04/16 14:40:46;;;;;;;12.13;11.10;;;;;;;10.18;76.29;99893.32;1747734;81;21135;-94
2021/04/16 14:43:16;;;;;;;13.27;12.17;;;;;;;10.19;76.35;99891.80;1731967;81;21560;-94
2021/04/16 14:45:49;;;;;;;12.33;11.33;;;;;;;10.15;76.42;99899.84;1705979;81;21126;-92